Aviston, IL (62216)

5:56 PM CST on December 03, 2016 (GMT -0600)
Brian's backyard | | Change Station

Elev 482 ft 38.61 °N, 89.65 °W | Updated 33 seconds ago

Clear
Clear
37.8 °F
Feels Like 38 °F
N
0.0
Wind Variable Wind from ESE
Gusts 0.0 mph

Today
High -- | Low -- °F
--% Chance of Precip.
Yesterday
High -- | Low -- °F
Precip. -- in
Pressure 30.30 in
Visibility 10.0 miles
Clouds Clear
Windchill 38 °F
Dew Point 37 °F
Humidity 96%
Rainfall 0.00 in
Snow Depth Not available.
6:59 AM 4:37 PM
Waxing Crescent, 18% visible
METAR KBLV 032258Z AUTO 11002KT 10SM CLR 05/01 A3027 RMK AO2 SLP258 T00500012
Pressure 30.30 in
Visibility 10.0 miles
Clouds Clear
Windchill 38 °F
Dew Point 37 °F
Humidity 96%
Rainfall 0.00 in
Snow Depth Not available.
6:59 AM 4:37 PM
Waxing Crescent, 18% visible
METAR KBLV 032258Z AUTO 11002KT 10SM CLR 05/01 A3027 RMK AO2 SLP258 T00500012

10-Day Weather Forecast

Almanac

Astronomy

Dec. 03, 2016 Rise Set
Actual Time
Civil Twilight
Nautical Twilight
Astronomical Twilight
Moon
Length of Visible Light
Length of Day
Tomorrow will be .
, % of the Moon is Illuminated

Today's Extremes

State Highs State Lows

Community

WunderPhotos

Upload Photos

1,955,536 photos uploaded!

WunderBlog® & News

Nearby

Air Quality

  Air Quality AQ Index Pollutant
Not available.

Snow Depth

Station Depth Elevation

Earthquake Activity

City Distance Mag. Time & Date
Minimum magnitude displayed is 2.5.

Coastal Water Temperatures

Place Temperature

Stations

Nearby Weather Stations

Station Location Temp. Windchill Dew Point Humidity Wind Precip. Elev Updated Type
                   

Watches & Warnings

There are currently no watches in effect.